Teulon, Canada
Current Conditions -  °F | °C
As of 11:00 PM on Wednesday 22 Oct 2014 (Local Time) from CYWG Reporting Station
Broken Clouds Broken Clouds  
Wind Chill: 52°   Ceiling: 20000
Heat Index: 52°   Visibility: 15mi
Dew Point: 50°   Wind: 13mph
Humidity: 94%   Direction: 190°S
Pressure: 29.75"   Gusts: NA
Location:  50.38°N, 97.27°W
Report Text: CYWG 230400Z 19011KT 15SM BKN200 11/10 A2975 RMK CI6 SLP079
Loading
Personal Weather Stations






























Interactive Weather Map
Tropical Storm Tracking
New forecast layout! Learn more

10-Day Weather Forecast

Advertisements
Track Severe Weather on mobile